createdAt,value
2022-09-09T00:04:28.488Z,4.77
2022-09-09T00:09:39.699Z,4.50
2022-09-09T00:14:49.402Z,4.83
2022-09-09T00:19:56.926Z,4.40
2022-09-09T00:25:10.014Z,4.43
2022-09-09T00:30:18.158Z,4.07
2022-09-09T00:35:25.688Z,4.27
2022-09-09T00:40:33.782Z,5.23
2022-09-09T00:45:59.293Z,3.93
2022-09-09T00:51:11.821Z,6.43
2022-09-09T00:56:19.667Z,5.17
2022-09-09T01:01:21.903Z,4.70
2022-09-09T01:06:31.074Z,4.70
2022-09-09T01:11:44.159Z,4.77
2022-09-09T01:16:47.746Z,5.97
2022-09-09T01:21:56.475Z,4.83
2022-09-09T01:27:02.403Z,5.53
2022-09-09T01:32:39.009Z,5.93
2022-09-09T01:37:42.154Z,5.97
2022-09-09T01:42:44.355Z,5.70
2022-09-09T01:47:47.296Z,5.20
2022-09-09T01:52:56.043Z,5.73
2022-09-09T01:58:12.242Z,5.73
2022-09-09T02:03:25.024Z,5.63
2022-09-09T02:08:39.653Z,5.73
2022-09-09T02:13:44.161Z,5.40
2022-09-09T02:18:52.276Z,6.30
2022-09-09T02:24:00.328Z,5.83
2022-09-09T02:29:06.062Z,7.63
2022-09-09T02:34:11.646Z,7.67
2022-09-09T02:39:15.426Z,5.93
2022-09-09T02:44:19.246Z,5.77
2022-09-09T02:49:29.660Z,7.80
2022-09-09T02:54:34.868Z,6.40
2022-09-09T02:59:36.766Z,6.77
2022-09-09T03:04:38.568Z,6.27
2022-09-09T03:09:41.970Z,7.37
2022-09-09T03:14:44.006Z,6.00
2022-09-09T03:19:45.997Z,5.37
2022-09-09T03:24:49.455Z,9.63
2022-09-09T03:29:51.415Z,5.93
2022-09-09T03:34:53.539Z,5.23
2022-09-09T03:39:57.146Z,5.90
2022-09-09T03:44:59.261Z,5.47
2022-09-09T03:50:00.910Z,5.87
2022-09-09T03:55:05.423Z,6.43
2022-09-09T04:00:09.087Z,5.17
2022-09-09T04:05:10.800Z,5.07
2022-09-09T04:10:14.493Z,7.10
2022-09-09T04:15:16.473Z,6.00
2022-09-09T04:20:18.361Z,7.70
2022-09-09T04:25:21.856Z,7.53
2022-09-09T04:30:24.580Z,6.40
2022-09-09T04:35:26.580Z,6.67
2022-09-09T04:40:29.603Z,6.60
2022-09-09T04:45:31.504Z,5.13
2022-09-09T04:50:33.177Z,8.83
2022-09-09T04:55:36.231Z,6.90
2022-09-09T05:00:38.654Z,7.10
2022-09-09T05:05:40.719Z,7.47
2022-09-09T05:10:44.032Z,7.80
2022-09-09T05:15:52.859Z,5.67
2022-09-09T05:20:59.784Z,5.53
2022-09-09T05:26:03.831Z,7.37
2022-09-09T05:31:07.080Z,5.63
2022-09-09T05:36:11.257Z,8.57
2022-09-09T05:41:15.814Z,4.90
2022-09-09T05:46:19.406Z,3.83
2022-09-09T05:51:23.068Z,5.20
2022-09-09T05:56:28.404Z,3.00
2022-09-09T06:01:32.813Z,4.07
2022-09-09T06:06:36.728Z,3.27
2022-09-09T06:11:40.831Z,3.60
2022-09-09T06:16:43.116Z,3.93
2022-09-09T06:21:45.162Z,4.30
2022-09-09T06:26:48.110Z,3.57
2022-09-09T06:31:50.158Z,5.70
2022-09-09T06:36:52.208Z,4.77
2022-09-09T06:41:55.201Z,4.03
2022-09-09T06:46:57.215Z,3.83
2022-09-09T06:51:58.917Z,5.97
2022-09-09T06:57:11.150Z,4.77
2022-09-09T07:02:23.491Z,3.43
2022-09-09T07:07:25.196Z,3.23
2022-09-09T07:12:28.252Z,2.33
2022-09-09T07:17:30.398Z,6.23
2022-09-09T07:22:32.056Z,2.73
2022-09-09T07:27:35.238Z,3.33
2022-09-09T07:32:37.193Z,4.00
2022-09-09T07:37:39.164Z,3.60
2022-09-09T07:42:42.677Z,2.07
2022-09-09T07:47:44.665Z,1.40
2022-09-09T07:52:46.826Z,1.43
2022-09-09T07:57:49.834Z,1.43
2022-09-09T08:02:51.554Z,3.53
2022-09-09T08:07:53.230Z,1.63
2022-09-09T08:13:16.880Z,1.53
2022-09-09T08:18:19.429Z,4.47
2022-09-09T08:23:21.397Z,2.20
2022-09-09T08:28:24.698Z,5.30
2022-09-09T08:33:26.737Z,1.27
2022-09-09T08:38:28.415Z,3.67
2022-09-09T08:43:33.124Z,3.80
2022-09-09T08:48:52.532Z,3.43
2022-09-09T08:53:59.777Z,1.70
2022-09-09T08:59:04.100Z,3.17
2022-09-09T09:04:18.565Z,5.20
2022-09-09T09:09:29.388Z,3.10
2022-09-09T09:14:37.101Z,1.23
2022-09-09T09:19:41.474Z,2.10
2022-09-09T09:24:51.297Z,2.97
2022-09-09T09:30:21.483Z,1.38
2022-09-09T09:35:19.690Z,1.75
2022-09-09T09:40:22.909Z,0.70
2022-09-09T09:45:30.246Z,1.05
2022-09-09T09:50:32.842Z,2.28
2022-09-09T09:55:36.409Z,1.90
2022-09-09T10:00:49.185Z,1.63
2022-09-09T10:05:51.453Z,1.95
2022-09-09T10:11:03.462Z,1.02
2022-09-09T10:16:22.078Z,4.28
2022-09-09T10:21:37.839Z,2.38
2022-09-09T10:26:49.448Z,1.67
2022-09-09T10:32:03.419Z,1.15
2022-09-09T10:37:23.611Z,0.60
2022-09-09T10:42:31.780Z,1.77
2022-09-09T10:47:47.149Z,0.65
2022-09-09T10:53:01.409Z,1.52
2022-09-09T10:58:06.104Z,1.23
2022-09-09T11:03:20.006Z,4.28
2022-09-09T11:08:24.942Z,0.98
2022-09-09T11:13:36.615Z,0.82
2022-09-09T11:18:43.563Z,0.60
2022-09-09T11:23:52.961Z,0.93
2022-09-09T11:29:17.186Z,1.42
2022-09-09T11:34:32.663Z,2.53
2022-09-09T11:40:08.988Z,1.38
2022-09-09T11:45:20.405Z,1.17
2022-09-09T11:50:33.065Z,3.78
2022-09-09T11:55:36.003Z,1.10
2022-09-09T12:00:40.211Z,0.88
2022-09-09T12:05:46.905Z,0.50
2022-09-09T12:10:54.921Z,5.57
2022-09-09T12:15:58.039Z,0.75
2022-09-09T12:21:07.973Z,2.90
2022-09-09T12:26:29.388Z,2.88
2022-09-09T12:31:42.677Z,5.53
2022-09-09T12:36:54.579Z,0.88
2022-09-09T12:41:56.337Z,2.05
2022-09-09T12:47:01.904Z,1.85
2022-09-09T12:52:09.930Z,2.38
2022-09-09T12:57:13.639Z,1.17
2022-09-09T13:02:22.115Z,1.42
2022-09-09T13:07:25.451Z,2.83
2022-09-09T13:12:27.198Z,0.95
2022-09-09T13:17:28.947Z,0.90
2022-09-09T13:22:36.611Z,1.75
2022-09-09T13:27:41.337Z,0.77
2022-09-09T13:32:43.059Z,3.10
2022-09-09T13:37:46.224Z,1.15
2022-09-09T13:42:48.487Z,1.10
2022-09-09T13:47:50.866Z,1.60
2022-09-09T13:52:56.833Z,1.55
2022-09-09T13:58:00.564Z,1.15
2022-09-09T14:03:02.753Z,2.00
2022-09-09T14:08:06.805Z,0.70
2022-09-09T14:13:08.528Z,1.80
2022-09-09T14:18:12.394Z,0.50
2022-09-09T14:23:15.448Z,1.38
2022-09-09T14:28:20.508Z,3.15
2022-09-09T14:33:28.490Z,0.95
2022-09-09T14:38:33.945Z,1.20
2022-09-09T14:43:35.889Z,1.75
2022-09-09T14:48:38.444Z,1.45
2022-09-09T14:53:41.743Z,1.80
2022-09-09T14:58:44.265Z,0.90
2022-09-09T15:03:51.438Z,3.20
2022-09-09T15:08:55.016Z,4.13
2022-09-09T15:13:57.140Z,0.68
2022-09-09T15:19:00.570Z,2.47
2022-09-09T15:24:04.787Z,1.98
2022-09-09T15:29:07.066Z,0.82
2022-09-09T15:34:09.448Z,1.25
2022-09-09T15:39:14.398Z,2.17
2022-09-09T15:44:16.826Z,1.20
2022-09-09T15:49:20.397Z,4.93
2022-09-09T15:54:24.653Z,0.63
2022-09-09T15:59:28.480Z,1.73
2022-09-09T16:04:30.239Z,2.92
2022-09-09T16:09:34.333Z,1.67
2022-09-09T16:14:36.340Z,1.60
2022-09-09T16:19:38.253Z,0.60
2022-09-09T16:24:41.882Z,0.70
2022-09-09T16:29:43.770Z,1.00
2022-09-09T16:34:45.613Z,0.98
2022-09-09T16:39:48.656Z,0.98
2022-09-09T16:44:50.811Z,1.27
2022-09-09T16:49:52.529Z,0.80
2022-09-09T16:54:55.651Z,1.15
2022-09-09T16:59:57.566Z,2.60
2022-09-09T17:04:59.602Z,1.17
2022-09-09T17:10:02.905Z,2.65
2022-09-09T17:15:05.589Z,1.30
2022-09-09T17:20:09.513Z,2.65
2022-09-09T17:25:12.876Z,0.95
2022-09-09T17:30:15.127Z,1.20
2022-09-09T17:35:17.060Z,2.60
2022-09-09T17:40:20.248Z,3.20
2022-09-09T17:45:21.993Z,1.47
2022-09-09T17:50:23.803Z,1.87
2022-09-09T17:55:27.515Z,5.67
2022-09-09T18:00:29.246Z,4.77
2022-09-09T18:05:30.875Z,2.10
2022-09-09T18:10:35.100Z,1.03
2022-09-09T18:15:49.253Z,2.33
2022-09-09T18:20:58.539Z,2.07
2022-09-09T18:26:01.730Z,2.27
2022-09-09T18:31:06.244Z,3.00
2022-09-09T18:36:09.510Z,1.73
2022-09-09T18:41:17.209Z,2.17
2022-09-09T18:46:19.741Z,2.17
2022-09-09T18:51:23.942Z,2.77
2022-09-09T18:56:27.424Z,3.30
2022-09-09T19:01:30.101Z,1.00
2022-09-09T19:06:33.474Z,0.83
2022-09-09T19:11:36.984Z,2.03
2022-09-09T19:16:40.694Z,3.23
2022-09-09T19:21:43.134Z,1.37
2022-09-09T19:26:48.321Z,1.10
2022-09-09T19:32:18.976Z,1.93
2022-09-09T19:37:18.650Z,3.00
2022-09-09T19:42:21.979Z,1.30
2022-09-09T19:47:23.793Z,2.40
2022-09-09T19:52:26.149Z,2.50
2022-09-09T19:57:29.565Z,2.50
2022-09-09T20:02:31.323Z,2.70
2022-09-09T20:07:33.009Z,1.93
2022-09-09T20:12:36.212Z,3.27
2022-09-09T20:17:38.324Z,0.87
2022-09-09T20:22:40.402Z,0.70
2022-09-09T20:27:43.568Z,2.30
2022-09-09T20:32:45.504Z,1.37
2022-09-09T20:37:47.270Z,1.73
2022-09-09T20:42:50.861Z,3.30
2022-09-09T20:47:52.505Z,0.70
2022-09-09T20:52:54.166Z,1.87
2022-09-09T20:57:57.487Z,2.17
2022-09-09T21:02:59.233Z,1.27
2022-09-09T21:08:00.880Z,1.80
2022-09-09T21:13:03.870Z,1.73
2022-09-09T21:18:06.044Z,1.70
2022-09-09T21:23:07.729Z,1.60
2022-09-09T21:28:11.384Z,1.33
2022-09-09T21:33:13.878Z,1.13
2022-09-09T21:38:17.310Z,1.60
2022-09-09T21:43:20.808Z,1.40
2022-09-09T21:48:22.566Z,0.90
2022-09-09T21:53:24.236Z,0.87
2022-09-09T21:58:27.291Z,1.47
2022-09-09T22:03:28.947Z,1.20
2022-09-09T22:08:30.723Z,1.47
2022-09-09T22:13:34.742Z,2.40
2022-09-09T22:18:36.509Z,2.07
2022-09-09T22:23:38.375Z,1.83
2022-09-09T22:28:41.572Z,3.27
2022-09-09T22:33:43.464Z,1.50
2022-09-09T22:38:45.124Z,1.30
2022-09-09T22:43:48.514Z,1.10
2022-09-09T22:48:50.525Z,2.33
2022-09-09T22:53:52.202Z,1.30
2022-09-09T22:58:56.796Z,2.80
2022-09-09T23:03:58.574Z,0.97
2022-09-09T23:09:02.243Z,1.03
2022-09-09T23:14:07.642Z,1.10
2022-09-09T23:19:12.068Z,2.40
2022-09-09T23:24:15.658Z,2.00
2022-09-09T23:29:18.674Z,3.23
2022-09-09T23:34:20.628Z,2.77
2022-09-09T23:39:22.565Z,1.43
2022-09-09T23:44:25.680Z,2.67
2022-09-09T23:49:27.360Z,2.53
2022-09-09T23:54:29.272Z,2.83
2022-09-09T23:59:32.279Z,1.30
